createdAt,value
2018-08-18T00:01:06.346Z,11.57
2018-08-18T00:03:33.759Z,14.97
2018-08-18T00:06:01.142Z,14.23
2018-08-18T00:08:28.491Z,9.83
2018-08-18T00:10:55.864Z,9.40
2018-08-18T00:16:16.944Z,12.97
2018-08-18T00:18:44.295Z,12.40
2018-08-18T00:21:11.619Z,10.93
2018-08-18T00:23:39.155Z,13.33
2018-08-18T00:26:06.831Z,12.67
2018-08-18T00:28:34.220Z,10.17
2018-08-18T00:31:01.592Z,10.13
2018-08-18T00:33:28.940Z,11.53
2018-08-18T00:35:56.272Z,10.03
2018-08-18T00:38:23.608Z,10.57
2018-08-18T00:40:50.988Z,11.80
2018-08-18T00:43:18.329Z,14.10
2018-08-18T00:45:45.687Z,13.13
2018-08-18T00:48:13.027Z,12.10
2018-08-18T00:50:41.875Z,11.20
2018-08-18T00:53:10.261Z,11.43
2018-08-18T00:55:38.023Z,11.57
2018-08-18T00:58:10.067Z,16.90
2018-08-18T01:00:37.403Z,11.57
2018-08-18T01:03:04.788Z,21.90
2018-08-18T01:05:32.136Z,12.47
2018-08-18T01:07:59.488Z,10.73
2018-08-18T01:10:26.848Z,9.53
2018-08-18T01:12:54.233Z,17.03
2018-08-18T01:15:27.413Z,10.33
2018-08-18T01:17:55.216Z,13.37
2018-08-18T01:20:22.664Z,11.60
2018-08-18T01:22:55.684Z,13.50
2018-08-18T01:25:23.969Z,13.27
2018-08-18T01:27:52.231Z,11.13
2018-08-18T01:30:19.619Z,14.30
2018-08-18T01:32:46.955Z,11.33
2018-08-18T01:35:14.315Z,12.70
2018-08-18T01:37:41.828Z,13.70
2018-08-18T01:40:09.258Z,15.03
2018-08-18T01:42:36.660Z,13.77
2018-08-18T01:45:04.235Z,13.67
2018-08-18T01:47:31.578Z,11.47
2018-08-18T01:50:03.497Z,15.50
2018-08-18T01:52:31.447Z,12.03
2018-08-18T01:54:58.797Z,12.87
2018-08-18T01:57:26.184Z,12.13
2018-08-18T01:59:53.586Z,13.30
2018-08-18T02:02:25.005Z,14.93
2018-08-18T02:04:52.615Z,12.33
2018-08-18T02:07:28.576Z,14.53
2018-08-18T02:09:56.231Z,14.60
2018-08-18T02:12:24.100Z,9.77
2018-08-18T02:14:51.515Z,17.67
2018-08-18T02:17:27.475Z,11.53
2018-08-18T02:19:55.292Z,15.53
2018-08-18T02:22:23.428Z,20.97
2018-08-18T02:24:50.787Z,19.87
2018-08-18T02:27:18.160Z,15.37
2018-08-18T02:29:57.219Z,16.43
2018-08-18T02:32:29.058Z,12.53
2018-08-18T02:34:56.755Z,12.23
2018-08-18T02:37:24.868Z,20.30
2018-08-18T02:39:52.214Z,19.10
2018-08-18T02:42:19.552Z,20.63
2018-08-18T02:44:46.916Z,21.47
2018-08-18T02:47:14.248Z,20.87
2018-08-18T02:49:47.678Z,23.83
2018-08-18T02:52:20.100Z,27.33
2018-08-18T02:54:47.694Z,19.03
2018-08-18T02:57:15.053Z,25.90
2018-08-18T02:59:42.407Z,22.00
2018-08-18T03:02:09.737Z,22.60
2018-08-18T03:04:42.859Z,23.37
2018-08-18T03:07:10.188Z,27.17
2018-08-18T03:09:37.617Z,24.10
2018-08-18T03:12:04.972Z,30.77
2018-08-18T03:14:32.317Z,15.93
2018-08-18T03:16:59.653Z,21.80
2018-08-18T03:19:27.024Z,25.50
2018-08-18T03:21:54.363Z,15.17
2018-08-18T03:24:22.771Z,23.30
2018-08-18T03:26:51.957Z,16.20
2018-08-18T03:29:20.274Z,14.33
2018-08-18T03:31:47.969Z,18.13
2018-08-18T03:34:15.540Z,14.13
2018-08-18T03:36:44.732Z,17.80
2018-08-18T03:39:22.119Z,24.70
2018-08-18T03:41:50.024Z,18.00
2018-08-18T03:44:17.399Z,17.13
2018-08-18T03:46:44.758Z,22.10
2018-08-18T03:49:12.174Z,20.73
2018-08-18T03:51:42.470Z,21.60
2018-08-18T03:54:10.073Z,18.17
2018-08-18T03:56:37.443Z,15.70
2018-08-18T03:59:04.792Z,16.40
2018-08-18T04:01:44.420Z,17.17
2018-08-18T04:04:12.836Z,18.80
2018-08-18T04:06:41.307Z,14.53
2018-08-18T04:09:21.336Z,20.00
2018-08-18T04:11:48.828Z,15.93
2018-08-18T04:14:20.584Z,19.80
2018-08-18T04:16:50.039Z,16.27
2018-08-18T04:19:18.611Z,17.83
2018-08-18T04:21:46.230Z,21.50
2018-08-18T04:24:14.003Z,22.23
2018-08-18T04:26:41.361Z,20.93
2018-08-18T04:29:08.701Z,20.13
2018-08-18T04:31:36.091Z,17.60
2018-08-18T04:34:04.648Z,26.17
2018-08-18T04:36:32.652Z,15.50
2018-08-18T04:39:00.028Z,15.30
2018-08-18T04:41:27.620Z,22.43
2018-08-18T04:43:55.306Z,24.13
2018-08-18T04:46:22.658Z,17.83
2018-08-18T04:48:49.992Z,15.17
2018-08-18T04:51:17.344Z,17.93
2018-08-18T04:53:44.700Z,19.10
2018-08-18T04:56:12.097Z,21.23
2018-08-18T04:58:39.628Z,15.83
2018-08-18T05:01:07.028Z,24.80
2018-08-18T05:03:39.703Z,18.33
2018-08-18T05:06:07.099Z,18.77
2018-08-18T05:08:34.444Z,15.60
2018-08-18T05:11:01.800Z,19.53
2018-08-18T05:13:29.126Z,18.13
2018-08-18T05:15:56.451Z,13.80
2018-08-18T05:18:23.803Z,18.07
2018-08-18T05:20:51.168Z,15.57
2018-08-18T05:23:22.514Z,17.63
2018-08-18T05:25:49.993Z,18.83
2018-08-18T05:28:17.398Z,20.33
2018-08-18T05:30:45.441Z,19.30
2018-08-18T05:33:12.783Z,15.70
2018-08-18T05:35:40.423Z,16.57
2018-08-18T05:38:07.767Z,18.90
2018-08-18T05:40:35.147Z,17.77
2018-08-18T05:43:03.145Z,18.03
2018-08-18T05:45:33.017Z,17.53
2018-08-18T05:48:00.425Z,21.73
2018-08-18T05:50:28.424Z,20.73
2018-08-18T05:53:29.019Z,23.63
2018-08-18T05:55:56.668Z,14.37
2018-08-18T05:58:24.035Z,15.83
2018-08-18T06:00:55.708Z,23.30
2018-08-18T06:03:23.055Z,17.07
2018-08-18T06:05:50.532Z,22.97
2018-08-18T06:08:17.780Z,16.87
2018-08-18T06:10:45.144Z,17.17
2018-08-18T06:13:18.167Z,25.80
2018-08-18T06:16:01.607Z,19.73
2018-08-18T06:18:29.008Z,18.13
2018-08-18T06:20:56.378Z,16.73
2018-08-18T06:23:23.771Z,17.70
2018-08-18T06:25:51.147Z,19.80
2018-08-18T06:28:18.510Z,18.90
2018-08-18T06:30:45.875Z,15.60
2018-08-18T06:33:13.257Z,17.83
2018-08-18T06:35:40.614Z,15.10
2018-08-18T06:38:07.965Z,21.03
2018-08-18T06:40:35.313Z,15.80
2018-08-18T06:43:02.652Z,13.07
2018-08-18T06:45:30.009Z,15.03
2018-08-18T06:48:13.200Z,17.63
2018-08-18T06:50:40.543Z,14.77
2018-08-18T06:53:07.919Z,18.30
2018-08-18T06:55:35.284Z,17.73
2018-08-18T06:58:02.672Z,15.97
2018-08-18T07:00:30.076Z,17.50
2018-08-18T07:02:57.467Z,19.07
2018-08-18T07:05:24.842Z,21.17
2018-08-18T07:07:52.212Z,21.73
2018-08-18T07:10:30.632Z,17.00
2018-08-18T07:13:00.292Z,16.57
2018-08-18T07:15:29.185Z,14.67
2018-08-18T07:17:56.570Z,20.20
2018-08-18T07:20:23.935Z,15.40
2018-08-18T07:22:51.894Z,21.10
2018-08-18T07:25:19.447Z,15.20
2018-08-18T07:27:48.562Z,19.00
2018-08-18T07:30:15.899Z,23.67
2018-08-18T07:32:43.272Z,13.80
2018-08-18T07:35:10.627Z,23.90
2018-08-18T07:37:38.090Z,18.70
2018-08-18T07:40:06.684Z,20.37
2018-08-18T07:42:34.048Z,15.30
2018-08-18T07:45:01.430Z,17.70
2018-08-18T07:47:33.055Z,18.00
2018-08-18T07:50:01.067Z,19.00
2018-08-18T07:52:28.452Z,15.93
2018-08-18T07:54:55.825Z,10.87
2018-08-18T07:57:23.208Z,13.68
2018-08-18T07:59:50.625Z,17.12
2018-08-18T08:02:17.923Z,12.37
2018-08-18T08:04:45.276Z,11.30
2018-08-18T08:07:12.691Z,10.48
2018-08-18T08:09:40.211Z,9.70
2018-08-18T08:12:07.578Z,10.98
2018-08-18T08:14:34.973Z,10.45
2018-08-18T08:17:02.344Z,15.15
2018-08-18T08:19:29.728Z,14.58
2018-08-18T08:21:57.112Z,13.00
2018-08-18T08:24:24.775Z,13.25
2018-08-18T08:26:52.145Z,13.48
2018-08-18T08:29:23.249Z,8.75
2018-08-18T08:31:50.658Z,13.32
2018-08-18T08:34:18.039Z,17.27
2018-08-18T08:36:45.543Z,16.03
2018-08-18T08:39:12.928Z,9.73
2018-08-18T08:41:40.326Z,12.07
2018-08-18T08:44:07.724Z,19.37
2018-08-18T08:46:36.149Z,15.43
2018-08-18T08:49:03.574Z,12.23
2018-08-18T08:51:30.962Z,14.63
2018-08-18T08:53:59.390Z,11.00
2018-08-18T08:56:34.243Z,12.80
2018-08-18T08:59:01.903Z,9.63
2018-08-18T09:01:29.251Z,10.60
2018-08-18T09:03:56.612Z,9.20
2018-08-18T09:06:23.964Z,13.20
2018-08-18T09:08:56.109Z,10.23
2018-08-18T09:11:23.689Z,12.20
2018-08-18T09:13:59.606Z,12.03
2018-08-18T09:16:28.812Z,13.40
2018-08-18T09:18:56.273Z,16.77
2018-08-18T09:21:23.611Z,14.90
2018-08-18T09:23:50.979Z,11.53
2018-08-18T09:26:18.421Z,16.80
2018-08-18T09:28:45.759Z,15.80
2018-08-18T09:31:13.163Z,12.17
2018-08-18T09:33:40.561Z,13.80
2018-08-18T09:36:07.943Z,18.67
2018-08-18T09:38:35.347Z,14.20
2018-08-18T09:41:02.714Z,10.70
2018-08-18T09:43:30.128Z,10.57
2018-08-18T09:45:57.769Z,9.47
2018-08-18T09:48:25.971Z,6.43
2018-08-18T09:50:54.620Z,9.93
2018-08-18T09:53:22.033Z,8.90
2018-08-18T09:55:49.639Z,8.07
2018-08-18T09:58:16.979Z,10.70
2018-08-18T10:00:44.409Z,10.87
2018-08-18T10:03:11.810Z,5.90
2018-08-18T10:05:39.617Z,9.37
2018-08-18T10:08:07.196Z,5.93
2018-08-18T10:10:34.673Z,7.20
2018-08-18T10:13:02.061Z,6.13
2018-08-18T10:15:31.021Z,8.03
2018-08-18T10:17:58.740Z,8.07
2018-08-18T10:20:26.371Z,10.30
2018-08-18T10:22:53.759Z,8.87
2018-08-18T10:25:21.164Z,8.87
2018-08-18T10:27:48.929Z,8.60
2018-08-18T10:30:16.299Z,11.43
2018-08-18T10:32:50.051Z,7.10
2018-08-18T10:35:22.808Z,7.30
2018-08-18T10:37:50.292Z,10.57
2018-08-18T10:40:17.684Z,8.87
2018-08-18T10:42:45.095Z,5.97
2018-08-18T10:45:12.649Z,7.27
2018-08-18T10:47:40.050Z,6.13
2018-08-18T10:50:19.122Z,8.33
2018-08-18T10:52:57.317Z,8.80
2018-08-18T10:55:24.678Z,7.83
2018-08-18T10:57:58.045Z,8.13
2018-08-18T11:00:26.857Z,6.47
2018-08-18T11:02:57.395Z,11.07
2018-08-18T11:05:25.556Z,6.13
2018-08-18T11:07:59.391Z,5.90
2018-08-18T11:10:28.533Z,4.83
2018-08-18T11:12:56.017Z,4.57
2018-08-18T11:15:23.465Z,7.17
2018-08-18T11:17:50.804Z,5.07
2018-08-18T11:23:14.285Z,5.80
2018-08-18T11:25:47.535Z,5.40
2018-08-18T11:28:15.449Z,5.30
2018-08-18T11:30:42.777Z,4.75
2018-08-18T11:33:13.623Z,4.75
2018-08-18T11:35:41.004Z,6.03
2018-08-18T11:38:15.222Z,8.07
2018-08-18T11:40:42.713Z,4.97
2018-08-18T11:43:12.156Z,11.63
2018-08-18T11:45:40.333Z,7.13
2018-08-18T11:48:11.664Z,8.20
2018-08-18T11:50:39.331Z,5.43
2018-08-18T11:53:06.793Z,7.33
2018-08-18T11:55:34.369Z,6.93
2018-08-18T11:58:03.583Z,5.23
2018-08-18T12:00:38.156Z,7.93
2018-08-18T12:03:26.852Z,4.57
2018-08-18T12:05:55.232Z,10.50
2018-08-18T12:08:23.692Z,4.57
2018-08-18T12:10:52.539Z,6.53
2018-08-18T12:13:28.655Z,6.03
2018-08-18T12:16:04.409Z,6.73
2018-08-18T12:18:32.224Z,6.63
2018-08-18T12:21:00.697Z,10.08
2018-08-18T12:23:28.666Z,7.45
2018-08-18T12:26:02.624Z,4.83
2018-08-18T12:28:35.817Z,8.03
2018-08-18T12:31:05.027Z,6.60
2018-08-18T12:33:32.426Z,6.17
2018-08-18T12:36:00.090Z,8.13
2018-08-18T12:38:27.479Z,6.27
2018-08-18T12:40:54.956Z,6.83
2018-08-18T12:43:39.513Z,7.00
2018-08-18T12:46:09.448Z,6.50
2018-08-18T12:48:38.364Z,5.27
2018-08-18T12:51:06.539Z,5.30
2018-08-18T12:53:39.647Z,6.53
2018-08-18T12:56:07.264Z,6.07
2018-08-18T12:58:34.804Z,9.40
2018-08-18T13:01:02.217Z,8.70
2018-08-18T13:03:29.607Z,6.83
2018-08-18T13:05:57.011Z,9.43
2018-08-18T13:08:24.361Z,5.87
2018-08-18T13:10:52.733Z,6.57
2018-08-18T13:13:20.109Z,5.33
2018-08-18T13:15:49.005Z,6.93
2018-08-18T13:18:16.366Z,7.90
2018-08-18T13:20:43.809Z,8.37
2018-08-18T13:23:11.195Z,7.20
2018-08-18T13:25:38.588Z,10.60
2018-08-18T13:28:05.989Z,10.40
2018-08-18T13:30:33.359Z,9.27
2018-08-18T13:33:00.820Z,10.80
2018-08-18T13:35:28.204Z,9.87
2018-08-18T13:37:55.575Z,9.00
2018-08-18T13:40:25.413Z,9.93
2018-08-18T13:42:52.981Z,11.85
2018-08-18T13:45:31.196Z,9.08
2018-08-18T13:48:03.964Z,11.70
2018-08-18T13:50:31.331Z,14.93
2018-08-18T13:52:59.864Z,13.13
2018-08-18T13:55:31.745Z,11.47
2018-08-18T13:57:59.403Z,10.63
2018-08-18T14:00:26.836Z,10.73
2018-08-18T14:02:54.212Z,10.33
2018-08-18T14:05:27.862Z,13.70
2018-08-18T14:07:59.211Z,16.47
2018-08-18T14:10:26.577Z,9.30
2018-08-18T14:12:55.008Z,12.77
2018-08-18T14:15:22.651Z,10.30
2018-08-18T14:17:59.468Z,8.70
2018-08-18T14:20:27.008Z,9.63
2018-08-18T14:23:00.062Z,8.08
2018-08-18T14:25:27.436Z,11.63
2018-08-18T14:28:03.103Z,8.90
2018-08-18T14:30:32.195Z,8.20
2018-08-18T14:32:59.574Z,7.33
2018-08-18T14:35:26.935Z,8.10
2018-08-18T14:37:54.327Z,7.50
2018-08-18T14:40:21.828Z,7.47
2018-08-18T14:42:50.202Z,5.63
2018-08-18T14:45:18.882Z,7.13
2018-08-18T14:47:47.767Z,8.83
2018-08-18T14:50:17.696Z,6.83
2018-08-18T14:52:45.536Z,8.57
2018-08-18T14:55:13.765Z,6.08
2018-08-18T14:57:47.596Z,6.37
2018-08-18T15:00:15.140Z,5.20
2018-08-18T15:02:43.253Z,4.97
2018-08-18T15:05:10.680Z,8.40
2018-08-18T15:07:45.509Z,6.53
2018-08-18T15:10:29.101Z,6.43
2018-08-18T15:12:56.497Z,8.60
2018-08-18T15:15:23.924Z,10.17
2018-08-18T15:17:52.002Z,6.13
2018-08-18T15:20:19.662Z,6.00
2018-08-18T15:22:47.648Z,5.67
2018-08-18T15:25:14.999Z,5.40
2018-08-18T15:27:42.409Z,5.87
2018-08-18T15:30:10.096Z,8.30
2018-08-18T15:32:38.420Z,4.62
2018-08-18T15:35:06.294Z,5.03
2018-08-18T15:37:34.107Z,6.17
2018-08-18T15:40:01.684Z,5.80
2018-08-18T15:42:29.072Z,8.67
2018-08-18T15:44:59.413Z,4.23
2018-08-18T15:47:27.344Z,4.90
2018-08-18T15:49:54.989Z,7.53
2018-08-18T15:52:27.368Z,4.33
2018-08-18T15:54:55.372Z,3.07
2018-08-18T15:57:23.103Z,3.63
2018-08-18T15:59:51.120Z,5.77
2018-08-18T16:02:19.105Z,6.47
2018-08-18T16:04:46.479Z,5.93
2018-08-18T16:07:14.640Z,4.97
2018-08-18T16:09:42.306Z,4.00
2018-08-18T16:12:10.605Z,3.70
2018-08-18T16:14:38.387Z,6.63
2018-08-18T16:17:06.148Z,5.47
2018-08-18T16:19:34.457Z,4.30
2018-08-18T16:22:02.206Z,4.77
2018-08-18T16:24:33.284Z,6.80
2018-08-18T16:27:04.247Z,6.03
2018-08-18T16:29:32.297Z,6.47
2018-08-18T16:32:13.831Z,8.93
2018-08-18T16:34:42.396Z,5.57
2018-08-18T16:37:10.180Z,5.87
2018-08-18T16:39:37.524Z,5.63
2018-08-18T16:42:05.425Z,9.03
2018-08-18T16:44:32.760Z,6.73
2018-08-18T16:47:03.370Z,6.33
2018-08-18T16:49:31.133Z,4.57
2018-08-18T16:51:59.373Z,5.80
2018-08-18T16:54:29.172Z,6.80
2018-08-18T16:56:57.133Z,7.70
2018-08-18T16:59:24.576Z,6.63
2018-08-18T17:01:51.926Z,7.43
2018-08-18T17:04:34.339Z,15.20
2018-08-18T17:07:05.397Z,12.30
2018-08-18T17:09:37.322Z,8.63
2018-08-18T17:12:14.744Z,12.03
2018-08-18T17:14:42.106Z,10.17
2018-08-18T17:17:10.371Z,10.10
2018-08-18T17:19:38.907Z,12.27
2018-08-18T17:22:07.847Z,11.10
2018-08-18T17:24:35.465Z,7.37
2018-08-18T17:27:04.725Z,8.13
2018-08-18T17:29:36.417Z,13.00
2018-08-18T17:32:04.043Z,9.60
2018-08-18T17:34:31.936Z,12.60
2018-08-18T17:37:00.668Z,8.80
2018-08-18T17:39:28.037Z,8.40
2018-08-18T17:41:55.630Z,8.90
2018-08-18T17:44:24.612Z,15.13
2018-08-18T17:46:55.157Z,7.50
2018-08-18T17:49:24.158Z,9.40
2018-08-18T17:51:59.244Z,11.70
2018-08-18T17:54:27.209Z,10.23
2018-08-18T17:56:54.893Z,11.17
2018-08-18T17:59:22.712Z,3.40
2018-08-18T18:01:59.638Z,10.17
2018-08-18T18:04:28.872Z,8.80
2018-08-18T18:06:58.545Z,7.73
2018-08-18T18:09:29.180Z,9.73
2018-08-18T18:11:57.602Z,8.07
2018-08-18T18:14:26.050Z,9.20
2018-08-18T18:16:53.479Z,14.03
2018-08-18T18:19:20.847Z,10.33
2018-08-18T18:21:48.587Z,13.37
2018-08-18T18:24:26.368Z,12.20
2018-08-18T18:26:53.718Z,9.77
2018-08-18T18:29:25.975Z,10.27
2018-08-18T18:31:53.343Z,9.97
2018-08-18T18:34:20.770Z,7.27
2018-08-18T18:36:48.436Z,12.33
2018-08-18T18:39:15.813Z,8.43
2018-08-18T18:41:43.167Z,12.60
2018-08-18T18:44:11.422Z,11.83
2018-08-18T18:46:39.636Z,14.03
2018-08-18T18:49:23.007Z,8.70
2018-08-18T18:51:50.761Z,16.63
2018-08-18T18:54:18.542Z,9.83
2018-08-18T18:56:46.568Z,10.47
2018-08-18T18:59:13.980Z,15.73
2018-08-18T19:01:43.968Z,10.47
2018-08-18T19:04:11.928Z,10.23
2018-08-18T19:06:53.714Z,14.90
2018-08-18T19:09:23.461Z,10.33
2018-08-18T19:11:51.633Z,10.00
2018-08-18T19:14:19.186Z,11.33
2018-08-18T19:16:47.083Z,12.73
2018-08-18T19:19:14.481Z,9.08
2018-08-18T19:21:43.274Z,9.17
2018-08-18T19:24:16.170Z,6.37
2018-08-18T19:26:47.676Z,12.17
2018-08-18T19:29:15.525Z,7.67
2018-08-18T19:31:42.931Z,10.95
2018-08-18T19:34:11.781Z,11.53
2018-08-18T19:36:52.825Z,9.97
2018-08-18T19:39:20.820Z,10.87
2018-08-18T19:41:48.676Z,14.77
2018-08-18T19:44:16.277Z,9.93
2018-08-18T19:46:44.572Z,18.27
2018-08-18T19:49:17.996Z,15.90
2018-08-18T19:51:45.654Z,15.27
2018-08-18T19:54:13.148Z,11.45
2018-08-18T19:56:40.495Z,16.87
2018-08-18T19:59:08.579Z,14.23
2018-08-18T20:01:36.469Z,15.17
2018-08-18T20:04:10.696Z,16.57
2018-08-18T20:06:38.099Z,17.70
2018-08-18T20:09:06.770Z,15.50
2018-08-18T20:11:34.368Z,16.17
2018-08-18T20:14:02.171Z,15.98
2018-08-18T20:16:29.537Z,16.50
2018-08-18T20:18:56.903Z,21.13
2018-08-18T20:21:24.288Z,13.97
2018-08-18T20:23:52.021Z,13.00
2018-08-18T20:26:19.435Z,21.52
2018-08-18T20:28:47.167Z,13.85
2018-08-18T20:31:14.624Z,15.77
2018-08-18T20:33:42.017Z,14.90
2018-08-18T20:36:09.458Z,17.47
2018-08-18T20:38:45.927Z,16.23
2018-08-18T20:41:13.890Z,20.63
2018-08-18T20:43:44.076Z,20.72
2018-08-18T20:46:12.286Z,16.43
2018-08-18T20:48:39.874Z,22.53
2018-08-18T20:51:07.305Z,25.53
2018-08-18T20:53:34.707Z,14.43
2018-08-18T20:56:02.799Z,16.83
2018-08-18T20:58:31.713Z,16.90
2018-08-18T21:00:59.380Z,15.43
2018-08-18T21:03:43.471Z,16.20
2018-08-18T21:06:11.391Z,22.77
2018-08-18T21:08:38.784Z,13.35
2018-08-18T21:11:06.291Z,19.15
2018-08-18T21:13:34.189Z,23.90
2018-08-18T21:16:01.724Z,17.05
2018-08-18T21:18:32.112Z,12.73
2018-08-18T21:21:00.111Z,15.23
2018-08-18T21:23:27.532Z,21.40
2018-08-18T21:25:54.888Z,22.10
2018-08-18T21:28:25.682Z,24.37
2018-08-18T21:30:53.096Z,13.50
2018-08-18T21:33:23.120Z,12.43
2018-08-18T21:35:50.527Z,14.67
2018-08-18T21:38:18.024Z,15.03
2018-08-18T21:40:45.439Z,13.47
2018-08-18T21:43:24.200Z,12.20
2018-08-18T21:45:52.411Z,14.30
2018-08-18T21:48:19.849Z,15.83
2018-08-18T21:50:47.398Z,14.73
2018-08-18T21:53:15.107Z,15.33
2018-08-18T21:55:42.604Z,16.50
2018-08-18T21:58:10.167Z,13.00
2018-08-18T22:00:45.970Z,17.10
2018-08-18T22:03:13.881Z,17.80
2018-08-18T22:05:41.326Z,14.23
2018-08-18T22:08:09.698Z,13.75
2018-08-18T22:10:37.288Z,14.13
2018-08-18T22:13:04.641Z,17.60
2018-08-18T22:15:32.223Z,16.27
2018-08-18T22:17:59.621Z,9.60
2018-08-18T22:20:26.971Z,11.70
2018-08-18T22:22:54.328Z,11.40
2018-08-18T22:25:21.676Z,9.67
2018-08-18T22:27:52.498Z,10.77
2018-08-18T22:30:23.683Z,11.90
2018-08-18T22:32:51.073Z,14.20
2018-08-18T22:35:18.427Z,11.90
2018-08-18T22:37:45.801Z,10.47
2018-08-18T22:40:13.152Z,12.10
2018-08-18T22:42:40.577Z,12.13
2018-08-18T22:45:21.054Z,9.17
2018-08-18T22:47:48.464Z,10.73
2018-08-18T22:50:15.825Z,8.57
2018-08-18T22:52:47.360Z,15.00
2018-08-18T22:55:14.977Z,12.23
2018-08-18T22:57:46.546Z,10.70
2018-08-18T23:00:13.948Z,14.10
2018-08-18T23:02:41.335Z,10.30
2018-08-18T23:05:08.748Z,16.70
2018-08-18T23:07:36.106Z,13.10
2018-08-18T23:10:04.293Z,12.03
2018-08-18T23:12:31.673Z,8.67
2018-08-18T23:14:59.050Z,14.93
2018-08-18T23:17:26.439Z,9.57
2018-08-18T23:19:53.787Z,10.43
2018-08-18T23:22:32.711Z,12.37
2018-08-18T23:25:00.128Z,14.77
2018-08-18T23:27:27.478Z,13.80
2018-08-18T23:29:54.818Z,10.10
2018-08-18T23:32:24.379Z,7.83
2018-08-18T23:34:52.976Z,13.43
2018-08-18T23:37:21.692Z,10.63
2018-08-18T23:39:53.404Z,11.07
2018-08-18T23:42:22.325Z,7.50
2018-08-18T23:44:49.707Z,14.00
2018-08-18T23:47:17.643Z,9.30
2018-08-18T23:49:45.304Z,13.93
2018-08-18T23:52:12.698Z,10.13
2018-08-18T23:54:40.085Z,8.37
2018-08-18T23:57:07.459Z,13.07
2018-08-18T23:59:34.936Z,8.33
